This is the latest recevied weather packets stored in our database for station/object NE8U. If no packets are shown the sender has not sent any weather packets the latest 1 day(s).
| Time | Temp. | Humidity | Pressure | Rain* | Wind** | Luminosity | Snow |
|---|---|---|---|---|---|---|---|
| 1836274622 | 28.33° C | 53% | 1017.3 hPa | 0 mm | 0 m/s | 0 W/m² | - |
| 1836274476 | 28.33° C | 53% | 1017.2 hPa | 0 mm | 0 m/s | 0 W/m² | - |
| 1836274320 | 28.33° C | 53% | 1017.6 hPa | 0 mm | 0 m/s | 0 W/m² | - |
| 1836274174 | 28.33° C | 53% | 1017.3 hPa | 0 mm | 0 m/s | 0 W/m² | - |
| 1836274019 | 28.33° C | 53% | 1017.4 hPa | 0 mm | 0 m/s | 0 W/m² | - |
| 1778051131 | 15° C | 49% | 1015.7 hPa | 0 mm | 0 m/s | 0 W/m² | - |
| 1778050828 | 15° C | 49% | 1015.9 hPa | 0 mm | 0 m/s | 0 W/m² | - |
| 1778050526 | 15.56° C | 49% | 1015.8 hPa | 0 mm | 0 m/s | 0 W/m² | - |
| 1778050222 | 15.56° C | 48% | 1015.8 hPa | 0 mm | 0 m/s | 0 W/m² | - |
| 1778049919 | 15.56° C | 48% | 1015.9 hPa | 0 mm | 0 m/s | 0 W/m² | - |
| 1778049615 | 15.56° C | 47% | 1015.8 hPa | 0 mm | 0 m/s | 0 W/m² | - |
| 1778049313 | 16.11° C | 47% | 1015.8 hPa | 0 mm | 0 m/s | 0 W/m² | - |
| 1778049010 | 16.11° C | 46% | 1015.9 hPa | 0 mm | 0 m/s | 0 W/m² | - |
| 1778048709 | 16.11° C | 46% | 1015.6 hPa | 0 mm | 0 m/s | 0 W/m² | - |
| 1778048405 | 16.11° C | 45% | 1015.8 hPa | 0 mm | 0 m/s | 0 W/m² | - |
| 1778048101 | 16.11° C | 46% | 1015.7 hPa | 0 mm | 0 m/s | 0 W/m² | - |
| 1778047799 | 16.11° C | 47% | 1015.8 hPa | 0 mm | 0 m/s | 0 W/m² | - |
| 1778047497 | 16.11° C | 47% | 1015.8 hPa | 0 mm | 0 m/s | 0 W/m² | - |
| 1778047194 | 16.67° C | 47% | 1015.9 hPa | 0 mm | 0 m/s | 0 W/m² | - |
| 1778046891 | 16.67° C | 47% | 1015.8 hPa | 0 mm | 0 m/s | 0 W/m² | - |
| 1778046588 | 17.22° C | 46% | 1015.8 hPa | 0 mm | 0 m/s | 0 W/m² | - |
| 1778046285 | 17.22° C | 45% | 1015.8 hPa | 0 mm | 0 m/s | 0 W/m² | - |
| 1778045980 | 17.22° C | 45% | 1015.8 hPa | 0 mm | 0 m/s | 0 W/m² | - |
| 1778045679 | 17.22° C | 44% | 1015.6 hPa | 0 mm | 0 m/s | 0 W/m² | - |
| 1778045377 | 17.78° C | 43% | 1015.6 hPa | 0 mm | 0 m/s | 0 W/m² | - |
* Rain latest hour (hover to see other rain measurements)
** Current wind speed in m/s (hover to see current wind gust speed)